Capitol Logistics 926

Operating for DHL



EKCH
Copenhagen Kastrup Airport
Copenhagen, DK
EDDK
Cologne Bonn Airport
Cologne, DE

Route Details

Aircraft Information
Group: European Fleet
Types: A30F,A31F,B738
Route Data
Demand: L
Distance: 347nm
Duration: 1h 14m
Recm'd Route: KOPE2D KOPEX MARIP N850 ELSOB/N0451F330 N850 WRB/N0452F240 P12 ESADU T858 KOPAG KOPA1S
Origin Wx: EKCH 272150Z AUTO 26014KT 9999 NCD 09/05 Q1006 TEMPO FEW020CB
Dest. Wx: EDDK 272150Z AUTO 31006KT 250V330 CAVOK 10/04 Q1023 NOSIG
Notes:

Financial History
Total Freight: 71,414lbs
Average Load: 23,805lbs/flt
Fuel Used: 37,422lbs
Avg. Fuel Used: 12,474lbs/flt
Fuel Expense: $17,747
Avg. Fuel Expense: $5,916
Avg. Fuel Cost: $0.47/lbs
Total Gross Income: $145,756
Pilot Pay: $757
Total Expenses: $25,705
Total Revenue: $101,422
Average Revenue: $48,585.33